Time;durP1;ratioP1;P1;durP2;ratioP2;P2;SDS_P1;SDS_P2;PMS_P1;PMS_P2;Temp;Humidity;BMP_temperature;BMP_pressure;BME280_temperature;BME280_humidity;BME280_pressure;Samples;Min_cycle;Max_cycle;Signal;HPM_P1;HPM_P2
2022/12/05 00:01:48;;;;;;;37.10;13.07;;;;;;;0.51;100.00;95961.25;5009411;28;20049;-81
2022/12/05 00:04:15;;;;;;;36.47;13.60;;;;;;;0.59;100.00;95968.81;4997419;28;20053;-80
2022/12/05 00:06:42;;;;;;;34.42;12.32;;;;;;;0.41;100.00;95966.59;4998143;28;20050;-80
2022/12/05 00:09:10;;;;;;;35.08;12.73;;;;;;;0.52;100.00;95965.53;5008171;28;20128;-81
2022/12/05 00:11:39;;;;;;;50.60;14.05;;;;;;;0.34;100.00;95968.72;5005658;28;20093;-81
2022/12/05 00:14:07;;;;;;;41.38;14.00;;;;;;;0.41;100.00;95983.47;4995104;28;20129;-81
2022/12/05 00:16:36;;;;;;;38.13;13.15;;;;;;;0.32;100.00;95979.69;5007087;28;20050;-80
2022/12/05 00:19:05;;;;;;;38.50;13.05;;;;;;;0.45;100.00;95981.06;4997346;28;20069;-81
2022/12/05 00:21:35;;;;;;;39.28;13.70;;;;;;;0.42;100.00;95989.66;5003179;28;20497;-79
2022/12/05 00:24:06;;;;;;;36.58;13.05;;;;;;;0.54;100.00;95976.81;5004008;28;20047;-80
2022/12/05 00:26:33;;;;;;;39.53;12.90;;;;;;;0.64;100.00;95981.41;5004009;28;20066;-81
2022/12/05 00:29:00;;;;;;;27.05;12.55;;;;;;;0.73;100.00;95977.13;4995178;28;20065;-79
2022/12/05 00:31:28;;;;;;;31.10;13.63;;;;;;;0.76;100.00;95980.09;4995210;28;20050;-80
2022/12/05 00:33:55;;;;;;;29.35;11.98;;;;;;;0.91;100.00;95968.59;4991056;28;20053;-80
2022/12/05 00:36:28;;;;;;;29.13;11.98;;;;;;;0.86;100.00;95981.19;4998130;28;20046;-81
2022/12/05 00:38:56;;;;;;;30.00;12.27;;;;;;;0.86;100.00;95989.22;4994512;28;20050;-80
2022/12/05 00:41:24;;;;;;;28.13;12.55;;;;;;;0.58;100.00;95993.19;4994028;28;20042;-80
2022/12/05 00:43:51;;;;;;;38.92;13.45;;;;;;;0.46;100.00;95982.69;4994209;28;20043;-80
2022/12/05 00:46:20;;;;;;;41.67;13.60;;;;;;;0.72;100.00;95983.56;5001220;28;20050;-81
2022/12/05 00:48:47;;;;;;;41.92;13.18;;;;;;;0.77;100.00;95983.56;4997693;28;20050;-80
2022/12/05 00:51:16;;;;;;;36.88;12.35;;;;;;;0.70;100.00;95981.16;5014638;28;20392;-80
2022/12/05 00:53:45;;;;;;;37.58;12.57;;;;;;;0.54;100.00;95992.91;5003372;28;20057;-81
2022/12/05 00:56:13;;;;;;;41.85;13.65;;;;;;;0.47;100.00;96003.03;4994015;28;20046;-80
2022/12/05 00:58:40;;;;;;;42.83;14.02;;;;;;;0.42;100.00;96006.53;4996229;28;20050;-81
2022/12/05 01:01:09;;;;;;;38.85;13.20;;;;;;;0.52;100.00;96021.81;5014596;28;20052;-81
2022/12/05 01:03:36;;;;;;;39.67;14.00;;;;;;;0.48;100.00;96026.09;5005498;28;20162;-80
2022/12/05 01:06:04;;;;;;;33.35;13.05;;;;;;;0.49;100.00;96027.69;5007616;28;20041;-80
2022/12/05 01:08:32;;;;;;;50.45;14.02;;;;;;;0.62;100.00;96032.56;5005790;28;20077;-81
2022/12/05 01:11:01;;;;;;;39.67;13.43;;;;;;;0.48;100.00;96042.19;5001857;28;20050;-81
2022/12/05 01:13:28;;;;;;;37.67;12.32;;;;;;;0.64;100.00;96024.28;5008195;28;20038;-80
2022/12/05 01:15:55;;;;;;;37.58;13.25;;;;;;;0.62;100.00;96016.47;4994738;28;20319;-80
2022/12/05 01:18:22;;;;;;;34.05;12.32;;;;;;;0.78;100.00;96020.84;5001630;28;20043;-80
2022/12/05 01:20:49;;;;;;;36.53;13.68;;;;;;;0.74;100.00;96025.13;4994108;28;20066;-81
2022/12/05 01:23:16;;;;;;;33.83;11.95;;;;;;;0.86;100.00;96026.75;4994973;28;20061;-80
2022/12/05 01:25:45;;;;;;;43.72;13.35;;;;;;;0.94;100.00;96028.91;5010444;28;20062;-80
2022/12/05 01:28:14;;;;;;;32.92;12.70;;;;;;;0.85;100.00;96030.50;4994751;28;20043;-81
2022/12/05 01:30:43;;;;;;;43.63;13.20;;;;;;;1.04;100.00;96045.84;4994541;28;20093;-81
2022/12/05 01:33:11;;;;;;;37.08;12.95;;;;;;;1.05;100.00;96041.28;5000268;28;20042;-77
2022/12/05 01:35:39;;;;;;;35.78;13.10;;;;;;;1.14;100.00;96050.41;4997776;28;20076;-81
2022/12/05 01:38:08;;;;;;;33.47;12.18;;;;;;;1.06;100.00;96061.66;4999330;28;20049;-79
2022/12/05 01:40:36;;;;;;;35.67;12.88;;;;;;;1.20;100.00;96059.25;5014278;28;20136;-78
2022/12/05 01:43:05;;;;;;;38.85;13.65;;;;;;;0.94;100.00;96055.72;5009303;28;20039;-81
2022/12/05 01:45:38;;;;;;;38.72;12.70;;;;;;;0.98;100.00;96059.47;5002130;28;20041;-80
2022/12/05 01:48:11;;;;;;;24.83;9.10;;;;;;;0.92;100.00;96073.94;4994486;28;20197;-79
2022/12/05 01:50:42;;;;;;;34.83;12.75;;;;;;;0.81;100.00;96066.94;5003556;28;20478;-79
2022/12/05 01:53:09;;;;;;;39.00;12.80;;;;;;;0.82;100.00;96066.69;4999676;28;20480;-79
2022/12/05 01:55:37;;;;;;;44.80;13.95;;;;;;;0.84;100.00;96061.06;4995197;28;20101;-78
2022/12/05 01:58:06;;;;;;;34.90;12.50;;;;;;;0.86;100.00;96064.28;4994038;28;20491;-79
2022/12/05 02:00:39;;;;;;;41.47;14.25;;;;;;;0.87;100.00;96063.22;5011511;28;20129;-79
2022/12/05 02:03:09;;;;;;;35.13;11.18;;;;;;;0.90;100.00;96060.00;5009014;28;20053;-78
2022/12/05 02:05:37;;;;;;;37.50;12.93;;;;;;;1.09;100.00;96068.34;5001892;28;20053;-79
2022/12/05 02:08:07;;;;;;;35.53;12.63;;;;;;;0.99;100.00;96069.97;4994913;28;20051;-78
2022/12/05 02:10:38;;;;;;;39.30;13.02;;;;;;;0.90;100.00;96076.91;4994714;28;20418;-78
2022/12/05 02:13:17;;;;;;;34.50;12.75;;;;;;;1.02;100.00;96085.50;4994019;28;20049;-78
2022/12/05 02:15:51;;;;;;;44.58;14.18;;;;;;;0.88;100.00;96099.66;4994045;28;20051;-79
2022/12/05 02:18:37;;;;;;;38.63;13.45;;;;;;;0.70;100.00;96109.78;4993597;28;20512;-79
2022/12/05 02:21:19;;;;;;;39.67;12.85;;;;;;;0.66;100.00;96108.69;4989900;28;20050;-81
2022/12/05 02:24:14;;;;;;;35.17;12.43;;;;;;;0.71;100.00;96103.34;5006433;28;20073;-79
2022/12/05 02:26:57;;;;;;;36.80;12.55;;;;;;;0.67;100.00;96104.94;4998031;28;20425;-78
2022/12/05 02:29:47;;;;;;;39.25;13.60;;;;;;;0.67;100.00;96107.63;5014136;28;20046;-80
2022/12/05 02:32:21;;;;;;;38.17;13.95;;;;;;;0.63;100.00;96113.78;5007905;28;20053;-80
2022/12/05 02:34:57;;;;;;;45.35;13.50;;;;;;;0.66;100.00;96118.59;4998087;28;21781;-78
2022/12/05 02:37:28;;;;;;;37.65;12.48;;;;;;;0.76;100.00;96124.00;4997431;28;20049;-78
2022/12/05 02:40:02;;;;;;;37.17;13.30;;;;;;;0.39;100.00;96129.44;4988776;28;20628;-80
2022/12/05 02:42:34;;;;;;;35.17;12.00;;;;;;;0.34;100.00;96145.47;5004933;28;20047;-79
2022/12/05 02:45:08;;;;;;;45.45;13.73;;;;;;;0.15;100.00;96137.84;4997296;28;20069;-79
2022/12/05 02:47:40;;;;;;;44.75;13.82;;;;;;;0.15;100.00;96118.28;5004472;28;20421;-81
2022/12/05 02:50:11;;;;;;;35.00;12.88;;;;;;;0.18;100.00;96129.31;5007340;28;20046;-80
2022/12/05 02:52:40;;;;;;;41.65;13.35;;;;;;;0.27;100.00;96132.31;5003019;28;20042;-78
2022/12/05 02:55:08;;;;;;;42.92;14.30;;;;;;;-0.03;100.00;96131.03;4990176;28;20109;-81
2022/12/05 02:57:37;;;;;;;46.67;15.68;;;;;;;0.03;100.00;96142.59;5013869;28;20054;-79
2022/12/05 03:00:07;;;;;;;46.08;15.75;;;;;;;0.06;100.00;96147.44;5011803;28;20133;-78
2022/12/05 03:02:34;;;;;;;43.60;15.63;;;;;;;0.27;100.00;96140.34;5008601;28;20064;-81
2022/12/05 03:05:14;;;;;;;48.25;16.20;;;;;;;0.32;100.00;96152.97;4998844;28;20046;-79
2022/12/05 03:07:48;;;;;;;40.50;15.60;;;;;;;0.39;100.00;96153.56;4999616;28;20125;-78
2022/12/05 03:10:16;;;;;;;;;;;;;;;0.43;100.00;96138.59;5011530;28;20046;-79
2022/12/05 03:12:48;;;;;;;42.47;14.63;;;;;;;0.41;100.00;96135.34;5011682;28;20241;-79
2022/12/05 03:15:18;;;;;;;40.00;15.18;;;;;;;0.43;100.00;96135.91;5013913;28;20124;-81
2022/12/05 03:17:53;;;;;;;46.80;16.48;;;;;;;0.54;100.00;96150.97;5000629;28;20048;-80
2022/12/05 03:20:25;;;;;;;40.50;15.13;;;;;;;0.47;100.00;96156.56;5000803;28;20042;-79
2022/12/05 03:22:57;;;;;;;41.47;14.40;;;;;;;0.49;100.00;96149.06;5009672;28;20171;-79
2022/12/05 03:25:31;;;;;;;37.20;13.32;;;;;;;0.52;100.00;96145.88;5001031;28;20515;-78
2022/12/05 03:28:05;;;;;;;40.92;15.23;;;;;;;0.39;100.00;96150.88;4993702;28;20048;-79
2022/12/05 03:30:38;;;;;;;41.33;14.45;;;;;;;0.34;100.00;96158.88;5015911;28;20053;-79
2022/12/05 03:33:10;;;;;;;41.57;15.67;;;;;;;0.41;100.00;96156.75;5004690;28;20042;-78
2022/12/05 03:35:42;;;;;;;43.22;15.30;;;;;;;0.28;100.00;96170.63;5006500;28;20301;-79
2022/12/05 03:38:12;;;;;;;41.42;15.55;;;;;;;0.19;100.00;96183.66;5006441;28;20054;-79
2022/12/05 03:40:44;;;;;;;48.95;15.30;;;;;;;0.29;100.00;96188.28;5006251;28;20046;-79
2022/12/05 03:43:18;;;;;;;42.50;14.00;;;;;;;0.18;100.00;96196.25;5002471;28;20042;-79
2022/12/05 03:45:50;;;;;;;42.78;15.93;;;;;;;-0.01;100.00;96200.38;5008897;28;20072;-80
2022/12/05 03:48:23;;;;;;;41.55;14.45;;;;;;;0.14;100.00;96187.09;5002127;28;20067;-79
2022/12/05 03:50:53;;;;;;;41.60;14.48;;;;;;;0.02;100.00;96199.06;4991888;28;20046;-79
2022/12/05 03:53:24;;;;;;;47.28;16.08;;;;;;;0.17;100.00;96193.84;5029624;28;20489;-80
2022/12/05 03:56:00;;;;;;;42.03;14.30;;;;;;;0.10;100.00;96191.34;5021217;28;20046;-80
2022/12/05 03:58:31;;;;;;;51.17;16.58;;;;;;;0.00;100.00;96207.34;5013278;28;20042;-80
2022/12/05 04:01:03;;;;;;;46.85;13.82;;;;;;;0.18;100.00;96215.00;5027144;28;20052;-80
2022/12/05 04:03:38;;;;;;;44.97;14.88;;;;;;;0.17;100.00;96216.06;5017401;28;20043;-78
2022/12/05 04:06:11;;;;;;;43.72;15.45;;;;;;;0.04;100.00;96216.47;5002916;28;20178;-79
2022/12/05 04:08:43;;;;;;;49.35;16.83;;;;;;;0.18;100.00;96223.03;5010045;28;20046;-78
2022/12/05 04:11:15;;;;;;;47.22;15.50;;;;;;;0.18;100.00;96224.91;5013587;28;20046;-80
2022/12/05 04:13:45;;;;;;;48.78;16.75;;;;;;;0.22;100.00;96231.38;5007861;28;20057;-80
2022/12/05 04:19:08;;;;;;;48.85;15.80;;;;;;;0.32;100.00;96236.00;4996850;28;20053;-79
2022/12/05 04:21:39;;;;;;;48.05;16.20;;;;;;;0.34;100.00;96244.59;5005739;28;20052;-80
2022/12/05 04:27:10;;;;;;;51.67;16.10;;;;;;;0.34;100.00;96241.91;5006704;28;20108;-78
2022/12/05 04:29:44;;;;;;;55.47;17.05;;;;;;;0.49;100.00;96236.66;5005544;28;20046;-79
2022/12/05 04:32:13;;;;;;;53.83;16.60;;;;;;;0.37;100.00;96239.53;5007560;28;20428;-79
2022/12/05 04:34:48;;;;;;;50.83;15.32;;;;;;;0.47;100.00;96233.41;5005997;28;20053;-79
2022/12/05 04:37:22;;;;;;;47.17;15.88;;;;;;;0.49;100.00;96236.66;5011265;28;20050;-79
2022/12/05 04:39:55;;;;;;;48.97;16.52;;;;;;;0.53;100.00;96237.78;4996785;28;20050;-79
2022/12/05 04:42:26;;;;;;;42.75;15.07;;;;;;;0.57;100.00;96238.06;4996276;28;20049;-79
2022/12/05 04:44:55;;;;;;;48.75;16.20;;;;;;;0.62;100.00;96240.75;5012573;28;20043;-78
2022/12/05 04:47:27;;;;;;;53.67;18.25;;;;;;;0.63;100.00;96240.53;5005441;28;20038;-78
2022/12/05 04:49:55;;;;;;;50.80;17.02;;;;;;;0.61;100.00;96247.19;4998267;28;20046;-79
2022/12/05 04:52:22;;;;;;;55.40;18.73;;;;;;;0.50;100.00;96243.63;5006790;28;20052;-78
2022/12/05 04:54:54;;;;;;;57.33;18.23;;;;;;;0.59;100.00;96246.66;5000330;28;20050;-79
2022/12/05 04:57:26;;;;;;;45.50;16.52;;;;;;;0.68;100.00;96245.94;5003079;28;20046;-79
2022/12/05 04:59:53;;;;;;;55.33;19.33;;;;;;;0.47;100.00;96244.13;5020231;28;20042;-79
2022/12/05 05:02:27;;;;;;;50.10;18.27;;;;;;;0.55;100.00;96238.31;5007043;28;20397;-79
2022/12/05 05:04:58;;;;;;;55.80;19.20;;;;;;;0.74;100.00;96234.16;5001596;28;20106;-79
2022/12/05 05:07:24;;;;;;;50.20;18.15;;;;;;;0.79;100.00;96236.06;5000017;28;20502;-79
2022/12/05 05:09:51;;;;;;;40.10;16.77;;;;;;;0.63;100.00;96231.69;4989716;28;20043;-78
2022/12/05 05:12:18;;;;;;;44.95;16.88;;;;;;;0.78;100.00;96231.75;5003849;28;20403;-79
2022/12/05 05:14:44;;;;;;;46.15;16.90;;;;;;;0.84;100.00;96221.91;5005537;28;20042;-79
2022/12/05 05:17:11;;;;;;;46.20;17.40;;;;;;;0.85;100.00;96237.72;5000962;28;20045;-79
2022/12/05 05:19:39;;;;;;;39.03;15.55;;;;;;;0.52;100.00;96241.50;4997063;28;20050;-81
2022/12/05 05:22:05;;;;;;;33.63;13.75;;;;;;;0.60;100.00;96237.56;5000600;28;20130;-79
2022/12/05 05:24:32;;;;;;;37.33;14.80;;;;;;;0.70;100.00;96238.44;4995720;28;20102;-79
2022/12/05 05:26:58;;;;;;;38.72;14.43;;;;;;;0.77;100.00;96239.00;5009931;28;20050;-78
2022/12/05 05:29:25;;;;;;;34.28;12.93;;;;;;;0.73;100.00;96232.56;4996643;28;20070;-79
2022/12/05 05:31:51;;;;;;;36.67;13.00;;;;;;;0.81;100.00;96243.84;5002377;28;20074;-79
2022/12/05 05:34:18;;;;;;;38.47;14.43;;;;;;;0.87;100.00;96243.63;4996963;28;20057;-78
2022/12/05 05:36:51;;;;;;;34.28;14.38;;;;;;;0.93;100.00;96247.13;4997262;28;20051;-78
2022/12/05 05:39:18;;;;;;;35.58;13.85;;;;;;;0.75;100.00;96251.84;5009386;28;20114;-79
2022/12/05 05:41:45;;;;;;;39.47;14.32;;;;;;;0.84;100.00;96251.38;4995022;28;20409;-78
2022/12/05 05:44:12;;;;;;;34.97;13.73;;;;;;;0.84;100.00;96254.06;5003659;28;20042;-79
2022/12/05 05:46:38;;;;;;;40.53;14.18;;;;;;;0.87;100.00;96264.25;4997844;28;20494;-79
2022/12/05 05:49:05;;;;;;;35.72;13.75;;;;;;;0.86;100.00;96262.66;4999535;28;20048;-79
2022/12/05 05:51:32;;;;;;;40.60;15.10;;;;;;;0.78;100.00;96267.44;4999047;28;20394;-79
2022/12/05 05:54:04;;;;;;;30.60;12.93;;;;;;;0.95;100.00;96266.47;5012182;28;20052;-80
2022/12/05 05:56:31;;;;;;;182.77;59.65;;;;;;;1.06;100.00;96260.09;5001713;28;20054;-80
2022/12/05 05:59:00;;;;;;;36.13;13.82;;;;;;;1.01;100.00;96260.88;5024199;28;20050;-80
2022/12/05 06:01:27;;;;;;;35.58;13.98;;;;;;;1.06;100.00;96265.47;5023644;28;20042;-78
2022/12/05 06:03:54;;;;;;;40.60;14.60;;;;;;;1.08;100.00;96262.50;5007264;28;20137;-78
2022/12/05 06:06:21;;;;;;;37.42;13.82;;;;;;;1.20;100.00;96266.63;4998570;28;20053;-78
2022/12/05 06:08:48;;;;;;;38.40;13.93;;;;;;;1.24;100.00;96275.72;4997198;28;20050;-79
2022/12/05 06:11:19;;;;;;;44.13;14.27;;;;;;;1.35;100.00;96275.78;5004987;28;20056;-79
2022/12/05 06:13:45;;;;;;;44.97;14.75;;;;;;;1.26;100.00;96281.66;4997171;28;20050;-78
2022/12/05 06:16:15;;;;;;;39.13;14.55;;;;;;;1.31;100.00;96275.53;4996158;28;20049;-78
2022/12/05 06:18:42;;;;;;;43.67;14.05;;;;;;;1.39;100.00;96266.16;4996392;28;20047;-77
2022/12/05 06:21:10;;;;;;;34.55;12.95;;;;;;;1.45;100.00;96265.91;4995291;28;20405;-77
2022/12/05 06:23:38;;;;;;;35.65;13.55;;;;;;;1.52;100.00;96271.06;4995830;28;20050;-77
2022/12/05 06:26:05;;;;;;;33.70;14.38;;;;;;;1.50;100.00;96270.50;4996950;28;20050;-77
2022/12/05 06:28:33;;;;;;;35.33;13.80;;;;;;;1.59;100.00;96276.97;5005046;28;20050;-77
2022/12/05 06:31:06;;;;;;;35.63;13.43;;;;;;;1.59;100.00;96292.28;4996749;28;20050;-78
2022/12/05 06:33:33;;;;;;;35.55;13.77;;;;;;;1.59;100.00;96297.66;5004835;28;20050;-78
2022/12/05 06:36:02;;;;;;;44.85;15.18;;;;;;;1.53;100.00;96302.19;5002300;28;20048;-77
2022/12/05 06:38:29;;;;;;;46.58;15.77;;;;;;;1.43;100.00;96304.81;4991023;28;20065;-78
2022/12/05 06:40:56;;;;;;;42.35;15.07;;;;;;;1.42;100.00;96309.38;4999741;28;20134;-76
2022/12/05 06:43:22;;;;;;;41.80;15.43;;;;;;;1.25;100.00;96320.28;4995714;28;20048;-76
2022/12/05 06:45:50;;;;;;;37.28;13.82;;;;;;;1.38;100.00;96318.22;4995259;28;20129;-76
2022/12/05 06:48:17;;;;;;;51.38;15.40;;;;;;;1.52;100.00;96330.91;5003968;28;20050;-78
2022/12/05 06:50:48;;;;;;;43.78;14.27;;;;;;;1.60;100.00;96332.25;4999693;28;20361;-77
2022/12/05 06:53:15;;;;;;;43.28;15.43;;;;;;;1.59;100.00;96335.22;4999593;28;20050;-77
2022/12/05 06:55:41;;;;;;;39.88;14.93;;;;;;;1.65;100.00;96343.03;5028183;22;20145;-78
2022/12/05 06:58:08;;;;;;;40.08;14.90;;;;;;;1.72;100.00;96346.31;5010778;28;20057;-79
2022/12/05 07:03:21;;;;;;;38.53;13.77;;;;;;;1.81;100.00;96355.44;5007133;28;20060;-77
2022/12/05 07:05:47;;;;;;;48.08;16.48;;;;;;;1.71;100.00;96357.28;5013623;28;20481;-78
2022/12/05 07:08:14;;;;;;;40.90;14.45;;;;;;;1.73;100.00;96349.78;5004822;28;20042;-77
2022/12/05 07:10:40;;;;;;;48.30;16.13;;;;;;;1.74;100.00;96354.09;5010139;28;20046;-77
2022/12/05 07:13:07;;;;;;;43.90;15.43;;;;;;;1.81;100.00;96354.63;5005684;28;20141;-76
2022/12/05 07:15:33;;;;;;;37.10;14.18;;;;;;;1.88;100.00;96357.06;5021308;28;20060;-79
2022/12/05 07:18:03;;;;;;;35.65;14.35;;;;;;;1.91;100.00;96360.06;5019716;28;20042;-84
2022/12/05 07:20:31;;;;;;;37.70;14.63;;;;;;;1.97;100.00;96368.94;5024595;28;20170;-84
2022/12/05 07:22:58;;;;;;;39.88;15.07;;;;;;;1.97;100.00;96364.38;5026335;28;20041;-78
2022/12/05 07:25:25;;;;;;;40.00;14.20;;;;;;;2.00;100.00;96360.38;5016466;28;20043;-80
2022/12/05 07:27:51;;;;;;;40.53;14.50;;;;;;;1.95;100.00;96349.59;5016661;28;20050;-78
2022/12/05 07:30:18;;;;;;;41.20;14.23;;;;;;;1.98;100.00;96354.44;5003928;28;20033;-79
2022/12/05 07:32:44;;;;;;;48.53;15.85;;;;;;;1.98;100.00;96349.06;5020353;28;20421;-76
2022/12/05 07:35:11;;;;;;;42.20;15.25;;;;;;;2.03;100.00;96357.13;5010131;28;20072;-76
2022/12/05 07:37:39;;;;;;;44.75;14.38;;;;;;;2.07;100.00;96359.03;5010333;28;20100;-77
2022/12/05 07:40:07;;;;;;;37.17;13.65;;;;;;;2.14;100.00;96364.19;5020183;28;20137;-78
2022/12/05 07:42:33;;;;;;;42.40;15.57;;;;;;;2.21;100.00;96369.31;5021932;28;20063;-78
2022/12/05 07:45:00;;;;;;;45.85;15.13;;;;;;;2.26;100.00;96369.31;5018490;28;20043;-77
2022/12/05 07:47:29;;;;;;;41.75;15.93;;;;;;;2.24;100.00;96364.19;5012014;28;20068;-76
2022/12/05 07:49:55;;;;;;;38.42;15.00;;;;;;;2.22;100.00;96366.34;5013493;28;20044;-78
2022/12/05 07:52:22;;;;;;;36.30;13.95;;;;;;;2.24;100.00;96369.56;5017176;28;20052;-77
2022/12/05 07:54:50;;;;;;;42.85;15.30;;;;;;;2.32;100.00;96365.56;5019960;28;20056;-78
2022/12/05 07:57:16;;;;;;;42.25;16.00;;;;;;;2.35;100.00;96370.44;5018961;28;20490;-78
2022/12/05 07:59:44;;;;;;;44.78;16.85;;;;;;;2.37;100.00;96372.84;5024423;28;20042;-79
2022/12/05 08:02:11;;;;;;;44.83;14.90;;;;;;;2.41;100.00;96363.19;5003532;28;20052;-77
2022/12/05 08:04:37;;;;;;;43.00;16.10;;;;;;;2.45;100.00;96367.72;5011800;28;20054;-77
2022/12/05 08:07:06;;;;;;;44.58;16.92;;;;;;;2.48;100.00;96361.03;5019362;28;20061;-79
2022/12/05 08:09:34;;;;;;;45.08;16.70;;;;;;;2.47;100.00;96362.13;5024954;28;20034;-82
2022/12/05 08:12:02;;;;;;;43.95;15.95;;;;;;;2.50;100.00;96361.56;5029742;28;20082;-81
2022/12/05 08:14:29;;;;;;;40.03;15.80;;;;;;;2.52;99.98;96370.19;5011433;28;20050;-77
2022/12/05 08:16:56;;;;;;;44.75;17.42;;;;;;;2.51;100.00;96374.75;5015374;28;20105;-81
2022/12/05 08:19:22;;;;;;;47.05;16.95;;;;;;;2.46;100.00;96387.38;5024226;28;20037;-76
2022/12/05 08:21:51;;;;;;;45.67;17.80;;;;;;;2.43;100.00;96390.59;5020688;28;20050;-80
2022/12/05 08:24:21;;;;;;;50.60;17.55;;;;;;;2.44;100.00;96386.81;5024787;28;20033;-86
2022/12/05 08:27:00;;;;;;;41.75;15.85;;;;;;;2.39;100.00;96382.22;5038500;28;20054;-85
2022/12/05 08:29:28;;;;;;;35.30;14.77;;;;;;;2.32;100.00;96387.06;5030548;28;20042;-86
2022/12/05 08:31:55;;;;;;;41.05;15.90;;;;;;;2.28;100.00;96388.66;5030696;28;20046;-86
2022/12/05 08:34:22;;;;;;;41.58;15.70;;;;;;;2.32;100.00;96397.81;5031395;28;20049;-85
2022/12/05 08:36:50;;;;;;;41.53;14.98;;;;;;;2.34;100.00;96391.09;5015235;28;20042;-76
2022/12/05 08:39:19;;;;;;;41.38;15.63;;;;;;;2.41;100.00;96400.81;5028639;28;20041;-82
2022/12/05 08:41:47;;;;;;;48.00;17.20;;;;;;;2.45;100.00;96396.50;5022836;28;20068;-82
2022/12/05 08:46:57;;;;;;;43.90;16.08;;;;;;;2.47;100.00;96405.13;5025093;28;20053;-79
2022/12/05 08:49:24;;;;;;;48.97;17.75;;;;;;;2.48;100.00;96401.34;5015704;28;20050;-81
2022/12/05 08:51:51;;;;;;;43.08;16.42;;;;;;;2.42;100.00;96407.78;5016405;28;20093;-83
2022/12/05 08:54:20;;;;;;;37.22;14.43;;;;;;;2.37;100.00;96410.47;5045680;28;20042;-81
2022/12/05 08:56:55;;;;;;;40.70;15.30;;;;;;;2.35;100.00;96413.41;5044646;28;20053;-83
2022/12/05 08:59:31;;;;;;;38.15;15.00;;;;;;;2.30;100.00;96414.22;5036753;28;20040;-81
2022/12/05 09:01:59;;;;;;;39.55;14.80;;;;;;;2.32;100.00;96414.75;5028287;28;20042;-77
2022/12/05 09:04:26;;;;;;;37.20;14.77;;;;;;;2.03;100.00;96406.28;5000866;28;20646;-76
2022/12/05 09:06:52;;;;;;;42.05;16.23;;;;;;;1.97;100.00;96417.28;4997924;28;20042;-76
2022/12/05 09:09:19;;;;;;;48.83;16.70;;;;;;;2.08;100.00;96424.31;5010289;28;20045;-76
2022/12/05 09:11:48;;;;;;;43.08;15.88;;;;;;;1.92;100.00;96425.31;5001217;28;20046;-79
2022/12/05 09:14:15;;;;;;;37.33;15.00;;;;;;;1.96;100.00;96421.03;5023632;28;20046;-79
2022/12/05 09:16:44;;;;;;;43.40;15.77;;;;;;;2.05;100.00;96427.53;5006490;28;20050;-79
2022/12/05 09:19:14;;;;;;;42.90;15.27;;;;;;;2.14;100.00;96425.97;5009168;28;20044;-79
2022/12/05 09:21:43;;;;;;;45.42;15.93;;;;;;;1.93;100.00;96418.84;5006238;28;20049;-79
2022/12/05 09:24:13;;;;;;;44.97;16.17;;;;;;;1.93;100.00;96421.53;5007528;28;20048;-79
2022/12/05 09:26:40;;;;;;;51.58;16.30;;;;;;;2.03;100.00;96425.09;4998486;28;20654;-81
2022/12/05 09:29:07;;;;;;;39.63;15.23;;;;;;;2.17;100.00;96428.13;5012808;28;20038;-80
2022/12/05 09:31:33;;;;;;;48.40;17.08;;;;;;;2.18;100.00;96424.34;5002517;28;20054;-78
2022/12/05 09:34:00;;;;;;;40.35;15.13;;;;;;;2.30;100.00;96437.59;5014210;28;20052;-79
2022/12/05 09:36:32;;;;;;;37.28;14.98;;;;;;;2.30;100.00;96437.59;5020045;28;20441;-84
2022/12/05 09:39:01;;;;;;;40.10;14.65;;;;;;;2.37;100.00;96437.34;5007177;28;20445;-81
2022/12/05 09:42:04;;;;;;;40.08;14.63;;;;;;;2.48;100.00;96444.34;5002681;28;20046;-81
2022/12/05 09:44:42;;;;;;;41.53;14.20;;;;;;;2.52;100.00;96443.56;5005772;28;20633;-79
2022/12/05 09:47:17;;;;;;;37.35;14.40;;;;;;;2.58;100.00;96442.50;5013136;28;20389;-78
2022/12/05 09:49:50;;;;;;;37.60;14.25;;;;;;;2.61;100.00;96438.50;5016591;28;20061;-79
2022/12/05 09:52:25;;;;;;;35.03;14.77;;;;;;;2.56;100.00;96441.97;5002514;28;20057;-78
2022/12/05 09:54:52;;;;;;;40.70;15.00;;;;;;;2.60;100.00;96439.53;5006582;28;20052;-79
2022/12/05 09:57:33;;;;;;;38.75;14.32;;;;;;;2.68;100.00;96438.22;5015749;28;20046;-79
2022/12/05 10:00:02;;;;;;;42.78;16.30;;;;;;;2.67;100.00;96436.63;5004276;28;20153;-78
2022/12/05 10:02:42;;;;;;;41.58;15.57;;;;;;;2.47;100.00;96442.75;5010901;28;20422;-78
2022/12/05 10:05:14;;;;;;;35.92;15.02;;;;;;;2.49;100.00;96436.00;5001401;28;20450;-78
2022/12/05 10:07:51;;;;;;;36.75;15.57;;;;;;;2.46;100.00;96441.94;5005226;28;20050;-81
2022/12/05 10:10:27;;;;;;;41.22;16.02;;;;;;;2.59;100.00;96446.00;5009594;28;20045;-79
2022/12/05 10:13:13;;;;;;;41.05;15.48;;;;;;;2.63;100.00;96451.66;5010868;28;20048;-79
2022/12/05 10:15:44;;;;;;;47.28;17.20;;;;;;;2.51;100.00;96446.53;5007287;28;20413;-79
2022/12/05 10:18:21;;;;;;;42.00;15.80;;;;;;;2.63;100.00;96439.03;5009581;28;20042;-79
2022/12/05 10:20:52;;;;;;;39.47;15.98;;;;;;;2.61;100.00;96444.69;5013910;28;20061;-79
2022/12/05 10:23:24;;;;;;;48.65;17.65;;;;;;;2.63;100.00;96447.09;5017308;28;20057;-77
2022/12/05 10:25:56;;;;;;;41.47;16.17;;;;;;;2.63;100.00;96440.91;5002826;28;20049;-78
2022/12/05 10:28:30;;;;;;;43.00;17.20;;;;;;;2.73;100.00;96435.56;4994573;28;20397;-79
2022/12/05 10:31:03;;;;;;;36.58;15.57;;;;;;;2.84;100.00;96443.38;5000151;28;20038;-79
2022/12/05 10:33:37;;;;;;;46.92;15.65;;;;;;;2.87;100.00;96434.78;5007329;28;20053;-76
2022/12/05 10:36:10;;;;;;;45.80;17.63;;;;;;;2.70;100.00;96426.13;5009081;28;20038;-78
2022/12/05 10:38:40;;;;;;;44.10;16.15;;;;;;;2.58;100.00;96423.69;5008121;28;20054;-80
2022/12/05 10:41:08;;;;;;;34.33;15.45;;;;;;;2.61;100.00;96425.06;5004182;28;20066;-79
2022/12/05 10:43:37;;;;;;;39.88;16.30;;;;;;;2.67;100.00;96432.06;5009905;28;20042;-79
2022/12/05 10:46:06;;;;;;;43.08;16.92;;;;;;;2.69;100.00;96434.47;5004327;28;20498;-78
2022/12/05 10:48:37;;;;;;;53.67;19.48;;;;;;;2.44;100.00;96427.94;4998481;28;20070;-79
2022/12/05 10:51:05;;;;;;;40.70;17.15;;;;;;;2.39;100.00;96425.22;5014586;28;20053;-79
2022/12/05 10:53:43;;;;;;;48.38;18.40;;;;;;;2.54;100.00;96416.41;5014153;28;20057;-79
2022/12/05 10:56:41;;;;;;;45.95;18.23;;;;;;;2.53;100.00;96410.22;4998073;28;20057;-80
2022/12/05 10:59:09;;;;;;;44.25;16.88;;;;;;;2.50;100.00;96415.31;5001407;28;20042;-78
2022/12/05 11:01:37;;;;;;;52.67;18.20;;;;;;;2.52;100.00;96407.81;5006414;28;20058;-78
2022/12/05 11:04:17;;;;;;;43.75;16.33;;;;;;;2.61;100.00;96412.41;5006907;28;20046;-78
2022/12/05 11:06:55;;;;;;;45.00;17.23;;;;;;;2.64;100.00;96411.06;5011979;28;20061;-78
2022/12/05 11:09:26;;;;;;;43.50;18.13;;;;;;;2.57;100.00;96407.84;5018265;28;20048;-79
2022/12/05 11:12:21;;;;;;;38.63;16.33;;;;;;;2.64;100.00;96411.06;5022839;28;20100;-79
2022/12/05 11:14:58;;;;;;;40.90;16.55;;;;;;;2.59;100.00;96402.97;4992662;28;20063;-81
2022/12/05 11:17:27;;;;;;;39.90;16.05;;;;;;;2.69;100.00;96408.38;5012042;28;20109;-81
2022/12/05 11:19:54;;;;;;;45.40;18.45;;;;;;;2.66;100.00;96408.91;5007065;28;20141;-80
2022/12/05 11:22:31;;;;;;;45.17;16.15;;;;;;;2.69;100.00;96397.63;5009947;28;20050;-79
2022/12/05 11:25:02;;;;;;;38.25;16.90;;;;;;;2.73;100.00;96404.09;5015108;28;20053;-80
2022/12/05 11:27:31;;;;;;;37.80;16.00;;;;;;;2.88;100.00;96400.63;5019733;28;20052;-79
2022/12/05 11:30:02;;;;;;;42.38;15.93;;;;;;;2.71;100.00;96400.03;5028484;28;20046;-80
2022/12/05 11:32:30;;;;;;;39.80;17.48;;;;;;;2.69;100.00;96397.63;5018543;28;20042;-78
2022/12/05 11:35:06;;;;;;;39.00;17.30;;;;;;;2.73;100.00;96398.72;5014044;28;20049;-80
2022/12/05 11:37:38;;;;;;;41.88;17.17;;;;;;;2.61;100.00;96400.84;5017500;28;20042;-78
2022/12/05 11:40:15;;;;;;;43.53;16.88;;;;;;;2.72;100.00;96394.41;5011619;28;20046;-79
2022/12/05 11:43:00;;;;;;;38.58;16.05;;;;;;;2.60;100.00;96391.16;5013153;28;20037;-81